Hemet Ryan Airport


Codes: KHMT/HMT
Name: Hemet Ryan Airport
City: Hemet
Country: United States
Elevation: 1512 ft.
Website:
Wikipedia:

Photos at Hemet Ryan Airport


   Photos courtesy of SpottingLog. You can add your own sightings and photos by signing up for a free trial today.



No photos found.

Weather at Hemet Ryan Airport


Time (UTC)DescriptionTempratureWindCloud coverageVisibilityPressureHumidity
26-Jun-2024 00:00Clear Sky33°C11 mph, S0%10000m1012hPa33%
26-Jun-2024 03:00Clear Sky27°C4 mph, S2%10000m1013hPa45%
26-Jun-2024 06:00Clear Sky20°C4 mph, SE3%10000m1015hPa62%
26-Jun-2024 09:00Clear Sky19°C2 mph, SE2%10000m1013hPa66%
26-Jun-2024 12:00Clear Sky18°C2 mph, SE3%10000m1014hPa69%
26-Jun-2024 15:00Clear Sky22°C0 mph, NE5%10000m1014hPa52%
26-Jun-2024 18:00Clear Sky29°C4 mph, SW3%10000m1013hPa35%
26-Jun-2024 21:00Clear Sky35°C9 mph, SW0%10000m1011hPa27%
27-Jun-2024 00:00Clear Sky31°C9 mph, S0%10000m1011hPa33%
27-Jun-2024 03:00Clear Sky24°C4 mph, S0%10000m1012hPa42%
27-Jun-2024 06:00Clear Sky20°C4 mph, S0%10000m1012hPa53%
27-Jun-2024 09:00Clear Sky18°C2 mph, S0%10000m1011hPa59%
27-Jun-2024 12:00Clear Sky17°C2 mph, SW0%10000m1011hPa64%
27-Jun-2024 15:00Clear Sky23°C2 mph, SW0%10000m1011hPa46%
27-Jun-2024 18:00Clear Sky30°C4 mph, SW0%10000m1009hPa30%
27-Jun-2024 21:00Clear Sky34°C11 mph, SW0%10000m1007hPa26%
28-Jun-2024 00:00Clear Sky31°C9 mph, SW0%10000m1006hPa33%
28-Jun-2024 03:00Clear Sky24°C7 mph, S0%10000m1007hPa49%
28-Jun-2024 06:00Clear Sky18°C4 mph, S0%10000m1008hPa72%
28-Jun-2024 09:00Clear Sky16°C4 mph, S0%10000m1008hPa83%
28-Jun-2024 12:00Clear Sky15°C2 mph, S0%10000m1008hPa85%
28-Jun-2024 15:00Clear Sky22°C2 mph, S1%10000m1009hPa52%
28-Jun-2024 18:00Clear Sky30°C7 mph, SW0%10000m1008hPa19%
28-Jun-2024 21:00Clear Sky33°C13 mph, SW0%10000m1007hPa17%
29-Jun-2024 00:00Clear Sky30°C11 mph, S0%10000m1007hPa19%
29-Jun-2024 03:00Clear Sky20°C4 mph, S0%10000m1009hPa51%
29-Jun-2024 06:00Clear Sky16°C4 mph, S0%10000m1011hPa71%
29-Jun-2024 09:00Clear Sky15°C2 mph, SE0%10000m1011hPa74%
29-Jun-2024 12:00Clear Sky14°C0 mph, NE0%10000m1011hPa68%
29-Jun-2024 15:00Clear Sky22°C2 mph, N0%10000m1011hPa33%
29-Jun-2024 18:00Clear Sky30°C4 mph, SW4%10000m1011hPa16%
29-Jun-2024 21:00Clear Sky35°C11 mph, SW0%10000m1009hPa13%
30-Jun-2024 00:00Clear Sky33°C9 mph, SW0%10000m1009hPa19%
30-Jun-2024 03:00Clear Sky22°C4 mph, S0%10000m1010hPa40%
30-Jun-2024 06:00Clear Sky18°C2 mph, S0%10000m1012hPa55%
30-Jun-2024 09:00Clear Sky17°C2 mph, E0%10000m1011hPa61%
30-Jun-2024 12:00Clear Sky16°C2 mph, E0%10000m1011hPa63%
30-Jun-2024 15:00Clear Sky25°C2 mph, NW0%10000m1012hPa30%
30-Jun-2024 18:00Clear Sky33°C4 mph, W0%10000m1011hPa15%
30-Jun-2024 21:00Clear Sky37°C11 mph, SW0%10000m1010hPa11%